sensor_id;sensor_type;location;lat;lon;timestamp;P1;durP1;ratioP1;P2;durP2;ratioP2
30080;SDS011;16902;50.816;12.828;2023-05-07T00:01:10;4.65;;;4.35;;
30080;SDS011;16902;50.816;12.828;2023-05-07T00:06:12;4.90;;;4.60;;
30080;SDS011;16902;50.816;12.828;2023-05-07T00:11:14;4.25;;;4.05;;
30080;SDS011;16902;50.816;12.828;2023-05-07T00:16:16;5.30;;;5.00;;
30080;SDS011;16902;50.816;12.828;2023-05-07T00:21:18;4.78;;;4.53;;
30080;SDS011;16902;50.816;12.828;2023-05-07T00:26:20;6.10;;;5.65;;
30080;SDS011;16902;50.816;12.828;2023-05-07T00:31:24;5.15;;;4.75;;
30080;SDS011;16902;50.816;12.828;2023-05-07T00:36:26;4.95;;;4.70;;
30080;SDS011;16902;50.816;12.828;2023-05-07T00:41:28;5.13;;;4.82;;
30080;SDS011;16902;50.816;12.828;2023-05-07T00:46:31;5.28;;;4.97;;
30080;SDS011;16902;50.816;12.828;2023-05-07T00:51:34;5.20;;;4.93;;
30080;SDS011;16902;50.816;12.828;2023-05-07T00:56:36;4.60;;;4.20;;
30080;SDS011;16902;50.816;12.828;2023-05-07T01:01:39;5.40;;;5.10;;
30080;SDS011;16902;50.816;12.828;2023-05-07T01:06:42;4.63;;;4.43;;
30080;SDS011;16902;50.816;12.828;2023-05-07T01:11:46;5.45;;;5.15;;
30080;SDS011;16902;50.816;12.828;2023-05-07T01:16:49;5.40;;;5.20;;
30080;SDS011;16902;50.816;12.828;2023-05-07T01:21:54;5.18;;;4.97;;
30080;SDS011;16902;50.816;12.828;2023-05-07T01:27:04;5.55;;;5.25;;
30080;SDS011;16902;50.816;12.828;2023-05-07T01:32:08;4.88;;;4.57;;
30080;SDS011;16902;50.816;12.828;2023-05-07T01:37:11;4.88;;;4.68;;
30080;SDS011;16902;50.816;12.828;2023-05-07T01:42:14;5.25;;;5.00;;
30080;SDS011;16902;50.816;12.828;2023-05-07T01:47:16;4.78;;;4.57;;
30080;SDS011;16902;50.816;12.828;2023-05-07T01:52:18;5.00;;;4.68;;
30080;SDS011;16902;50.816;12.828;2023-05-07T01:57:20;4.95;;;4.65;;
30080;SDS011;16902;50.816;12.828;2023-05-07T02:02:22;4.53;;;4.32;;
30080;SDS011;16902;50.816;12.828;2023-05-07T02:07:25;4.65;;;4.38;;
30080;SDS011;16902;50.816;12.828;2023-05-07T02:12:27;5.25;;;4.93;;
30080;SDS011;16902;50.816;12.828;2023-05-07T02:17:30;5.53;;;5.07;;
30080;SDS011;16902;50.816;12.828;2023-05-07T02:22:33;5.43;;;5.03;;
30080;SDS011;16902;50.816;12.828;2023-05-07T02:27:35;5.63;;;5.13;;
30080;SDS011;16902;50.816;12.828;2023-05-07T02:32:38;4.15;;;3.95;;
30080;SDS011;16902;50.816;12.828;2023-05-07T02:37:40;5.30;;;4.80;;
30080;SDS011;16902;50.816;12.828;2023-05-07T02:42:42;5.22;;;4.75;;
30080;SDS011;16902;50.816;12.828;2023-05-07T02:47:44;4.70;;;4.40;;
30080;SDS011;16902;50.816;12.828;2023-05-07T02:52:46;4.90;;;4.50;;
30080;SDS011;16902;50.816;12.828;2023-05-07T02:57:48;5.53;;;5.03;;
30080;SDS011;16902;50.816;12.828;2023-05-07T03:02:50;5.45;;;4.95;;
30080;SDS011;16902;50.816;12.828;2023-05-07T03:07:53;5.30;;;4.80;;
30080;SDS011;16902;50.816;12.828;2023-05-07T03:12:54;4.35;;;4.07;;
30080;SDS011;16902;50.816;12.828;2023-05-07T03:17:57;4.60;;;4.25;;
30080;SDS011;16902;50.816;12.828;2023-05-07T03:23:00;5.20;;;4.80;;
30080;SDS011;16902;50.816;12.828;2023-05-07T03:28:02;4.78;;;4.38;;
30080;SDS011;16902;50.816;12.828;2023-05-07T03:33:16;4.30;;;4.00;;
30080;SDS011;16902;50.816;12.828;2023-05-07T03:38:18;4.63;;;4.22;;
30080;SDS011;16902;50.816;12.828;2023-05-07T03:43:20;5.25;;;4.82;;
30080;SDS011;16902;50.816;12.828;2023-05-07T03:48:29;5.03;;;4.65;;
30080;SDS011;16902;50.816;12.828;2023-05-07T03:53:33;5.78;;;5.15;;
30080;SDS011;16902;50.816;12.828;2023-05-07T03:58:35;4.55;;;4.10;;
30080;SDS011;16902;50.816;12.828;2023-05-07T04:03:41;4.63;;;4.00;;
30080;SDS011;16902;50.816;12.828;2023-05-07T04:08:44;4.65;;;4.35;;
30080;SDS011;16902;50.816;12.828;2023-05-07T04:13:47;4.70;;;4.38;;
30080;SDS011;16902;50.816;12.828;2023-05-07T04:18:53;4.13;;;3.92;;
30080;SDS011;16902;50.816;12.828;2023-05-07T04:23:55;3.55;;;3.30;;
30080;SDS011;16902;50.816;12.828;2023-05-07T04:28:58;3.50;;;3.30;;
30080;SDS011;16902;50.816;12.828;2023-05-07T04:34:05;4.28;;;3.88;;
30080;SDS011;16902;50.816;12.828;2023-05-07T04:39:07;3.75;;;3.55;;
30080;SDS011;16902;50.816;12.828;2023-05-07T04:44:09;4.50;;;3.92;;
30080;SDS011;16902;50.816;12.828;2023-05-07T04:49:12;3.53;;;3.33;;
30080;SDS011;16902;50.816;12.828;2023-05-07T04:54:14;4.07;;;3.80;;
30080;SDS011;16902;50.816;12.828;2023-05-07T04:59:16;3.95;;;3.75;;
30080;SDS011;16902;50.816;12.828;2023-05-07T05:04:18;4.32;;;4.03;;
30080;SDS011;16902;50.816;12.828;2023-05-07T05:09:21;3.80;;;3.60;;
30080;SDS011;16902;50.816;12.828;2023-05-07T05:14:23;3.72;;;3.42;;
30080;SDS011;16902;50.816;12.828;2023-05-07T05:19:26;4.47;;;4.13;;
30080;SDS011;16902;50.816;12.828;2023-05-07T05:24:28;3.58;;;3.38;;
30080;SDS011;16902;50.816;12.828;2023-05-07T05:29:30;3.03;;;2.92;;
30080;SDS011;16902;50.816;12.828;2023-05-07T05:34:33;4.47;;;4.15;;
30080;SDS011;16902;50.816;12.828;2023-05-07T05:39:36;4.25;;;4.05;;
30080;SDS011;16902;50.816;12.828;2023-05-07T05:44:40;4.05;;;3.75;;
30080;SDS011;16902;50.816;12.828;2023-05-07T05:49:42;4.63;;;4.25;;
30080;SDS011;16902;50.816;12.828;2023-05-07T05:54:48;4.90;;;4.57;;
30080;SDS011;16902;50.816;12.828;2023-05-07T05:59:51;4.15;;;3.95;;
30080;SDS011;16902;50.816;12.828;2023-05-07T06:04:53;4.32;;;4.13;;
30080;SDS011;16902;50.816;12.828;2023-05-07T06:09:57;5.43;;;5.03;;
30080;SDS011;16902;50.816;12.828;2023-05-07T06:14:59;5.07;;;4.57;;
30080;SDS011;16902;50.816;12.828;2023-05-07T06:20:01;5.50;;;5.18;;
30080;SDS011;16902;50.816;12.828;2023-05-07T06:25:03;4.45;;;4.15;;
30080;SDS011;16902;50.816;12.828;2023-05-07T06:30:07;4.72;;;4.53;;
30080;SDS011;16902;50.816;12.828;2023-05-07T06:35:10;6.35;;;5.75;;
30080;SDS011;16902;50.816;12.828;2023-05-07T06:40:13;4.35;;;4.15;;
30080;SDS011;16902;50.816;12.828;2023-05-07T06:45:17;4.97;;;4.57;;
30080;SDS011;16902;50.816;12.828;2023-05-07T06:50:19;4.72;;;4.53;;
30080;SDS011;16902;50.816;12.828;2023-05-07T06:55:22;4.93;;;4.72;;
30080;SDS011;16902;50.816;12.828;2023-05-07T07:00:24;4.63;;;4.43;;
30080;SDS011;16902;50.816;12.828;2023-05-07T07:05:29;5.07;;;4.78;;
30080;SDS011;16902;50.816;12.828;2023-05-07T07:10:32;5.80;;;5.50;;
30080;SDS011;16902;50.816;12.828;2023-05-07T07:15:35;5.97;;;5.75;;
30080;SDS011;16902;50.816;12.828;2023-05-07T07:20:38;6.20;;;5.93;;
30080;SDS011;16902;50.816;12.828;2023-05-07T07:25:41;6.20;;;5.90;;
30080;SDS011;16902;50.816;12.828;2023-05-07T07:30:44;7.50;;;7.10;;
30080;SDS011;16902;50.816;12.828;2023-05-07T07:35:46;6.75;;;6.38;;
30080;SDS011;16902;50.816;12.828;2023-05-07T07:40:48;6.38;;;6.07;;
30080;SDS011;16902;50.816;12.828;2023-05-07T07:45:51;7.03;;;6.63;;
30080;SDS011;16902;50.816;12.828;2023-05-07T07:50:54;7.10;;;6.80;;
30080;SDS011;16902;50.816;12.828;2023-05-07T07:55:56;6.22;;;5.90;;
30080;SDS011;16902;50.816;12.828;2023-05-07T08:01:03;6.05;;;5.80;;
30080;SDS011;16902;50.816;12.828;2023-05-07T08:06:05;6.70;;;6.43;;
30080;SDS011;16902;50.816;12.828;2023-05-07T08:11:09;7.10;;;6.80;;
30080;SDS011;16902;50.816;12.828;2023-05-07T08:16:11;7.82;;;7.32;;
30080;SDS011;16902;50.816;12.828;2023-05-07T08:21:14;7.70;;;7.20;;
30080;SDS011;16902;50.816;12.828;2023-05-07T08:26:16;7.50;;;7.20;;
30080;SDS011;16902;50.816;12.828;2023-05-07T08:31:18;6.30;;;6.00;;
30080;SDS011;16902;50.816;12.828;2023-05-07T08:36:20;6.80;;;6.50;;
30080;SDS011;16902;50.816;12.828;2023-05-07T08:41:23;6.90;;;6.60;;
30080;SDS011;16902;50.816;12.828;2023-05-07T08:46:25;7.55;;;7.18;;
30080;SDS011;16902;50.816;12.828;2023-05-07T08:51:30;6.88;;;6.65;;
30080;SDS011;16902;50.816;12.828;2023-05-07T08:56:33;7.53;;;7.22;;
30080;SDS011;16902;50.816;12.828;2023-05-07T09:01:35;7.47;;;7.18;;
30080;SDS011;16902;50.816;12.828;2023-05-07T09:06:37;8.07;;;7.78;;
30080;SDS011;16902;50.816;12.828;2023-05-07T09:11:44;8.60;;;8.30;;
30080;SDS011;16902;50.816;12.828;2023-05-07T09:16:48;9.82;;;9.43;;
30080;SDS011;16902;50.816;12.828;2023-05-07T09:22:00;10.20;;;9.73;;
30080;SDS011;16902;50.816;12.828;2023-05-07T09:27:12;10.18;;;9.85;;
30080;SDS011;16902;50.816;12.828;2023-05-07T09:32:17;10.77;;;10.38;;
30080;SDS011;16902;50.816;12.828;2023-05-07T09:37:20;11.02;;;10.63;;
30080;SDS011;16902;50.816;12.828;2023-05-07T09:42:23;11.52;;;11.02;;
30080;SDS011;16902;50.816;12.828;2023-05-07T09:47:29;12.85;;;12.27;;
30080;SDS011;16902;50.816;12.828;2023-05-07T09:52:34;12.10;;;11.55;;
30080;SDS011;16902;50.816;12.828;2023-05-07T09:57:39;11.65;;;11.20;;
30080;SDS011;16902;50.816;12.828;2023-05-07T10:02:43;12.00;;;11.50;;
30080;SDS011;16902;50.816;12.828;2023-05-07T10:07:51;11.80;;;11.30;;
30080;SDS011;16902;50.816;12.828;2023-05-07T10:12:55;11.73;;;11.23;;
30080;SDS011;16902;50.816;12.828;2023-05-07T10:18:05;11.40;;;11.00;;
30080;SDS011;16902;50.816;12.828;2023-05-07T10:23:08;12.23;;;11.73;;
30080;SDS011;16902;50.816;12.828;2023-05-07T10:28:19;12.80;;;12.30;;
30080;SDS011;16902;50.816;12.828;2023-05-07T10:33:27;11.90;;;11.50;;
30080;SDS011;16902;50.816;12.828;2023-05-07T10:38:32;12.45;;;11.73;;
30080;SDS011;16902;50.816;12.828;2023-05-07T10:43:39;12.25;;;11.75;;
30080;SDS011;16902;50.816;12.828;2023-05-07T11:04:32;13.20;;;12.70;;
30080;SDS011;16902;50.816;12.828;2023-05-07T11:09:58;13.00;;;12.50;;
30080;SDS011;16902;50.816;12.828;2023-05-07T11:15:35;13.75;;;13.15;;
30080;SDS011;16902;50.816;12.828;2023-05-07T11:26:13;13.98;;;13.38;;
30080;SDS011;16902;50.816;12.828;2023-05-07T11:31:17;13.98;;;13.40;;
30080;SDS011;16902;50.816;12.828;2023-05-07T11:36:24;13.70;;;13.20;;
30080;SDS011;16902;50.816;12.828;2023-05-07T11:41:35;14.15;;;13.55;;
30080;SDS011;16902;50.816;12.828;2023-05-07T11:46:42;14.13;;;13.63;;
30080;SDS011;16902;50.816;12.828;2023-05-07T11:51:45;14.25;;;13.65;;
30080;SDS011;16902;50.816;12.828;2023-05-07T11:56:48;14.20;;;13.70;;
30080;SDS011;16902;50.816;12.828;2023-05-07T12:01:50;14.93;;;14.32;;
30080;SDS011;16902;50.816;12.828;2023-05-07T12:06:55;14.52;;;13.93;;
30080;SDS011;16902;50.816;12.828;2023-05-07T12:11:58;14.75;;;14.15;;
30080;SDS011;16902;50.816;12.828;2023-05-07T12:17:05;14.57;;;13.98;;
30080;SDS011;16902;50.816;12.828;2023-05-07T12:22:11;13.77;;;13.27;;
30080;SDS011;16902;50.816;12.828;2023-05-07T12:27:14;14.05;;;13.55;;
30080;SDS011;16902;50.816;12.828;2023-05-07T12:32:17;14.20;;;13.60;;
30080;SDS011;16902;50.816;12.828;2023-05-07T12:37:24;15.07;;;14.48;;
30080;SDS011;16902;50.816;12.828;2023-05-07T12:42:32;13.80;;;13.30;;
30080;SDS011;16902;50.816;12.828;2023-05-07T12:47:37;14.32;;;13.73;;
30080;SDS011;16902;50.816;12.828;2023-05-07T12:52:39;14.13;;;13.60;;
30080;SDS011;16902;50.816;12.828;2023-05-07T12:57:43;13.90;;;13.40;;
30080;SDS011;16902;50.816;12.828;2023-05-07T13:02:48;13.93;;;13.38;;
30080;SDS011;16902;50.816;12.828;2023-05-07T13:07:54;13.85;;;13.35;;
30080;SDS011;16902;50.816;12.828;2023-05-07T13:12:59;15.05;;;14.40;;
30080;SDS011;16902;50.816;12.828;2023-05-07T13:18:01;13.70;;;13.20;;
30080;SDS011;16902;50.816;12.828;2023-05-07T13:23:04;13.90;;;13.40;;
30080;SDS011;16902;50.816;12.828;2023-05-07T13:28:06;14.10;;;13.52;;
30080;SDS011;16902;50.816;12.828;2023-05-07T13:33:11;14.23;;;13.63;;
30080;SDS011;16902;50.816;12.828;2023-05-07T13:38:14;14.38;;;13.77;;
30080;SDS011;16902;50.816;12.828;2023-05-07T13:43:17;14.77;;;14.18;;
30080;SDS011;16902;50.816;12.828;2023-05-07T13:48:20;14.50;;;13.90;;
30080;SDS011;16902;50.816;12.828;2023-05-07T13:53:22;14.55;;;13.95;;
30080;SDS011;16902;50.816;12.828;2023-05-07T13:58:23;15.07;;;14.48;;
30080;SDS011;16902;50.816;12.828;2023-05-07T14:03:25;14.77;;;14.18;;
30080;SDS011;16902;50.816;12.828;2023-05-07T14:08:27;14.68;;;14.07;;
30080;SDS011;16902;50.816;12.828;2023-05-07T14:13:32;13.75;;;13.25;;
30080;SDS011;16902;50.816;12.828;2023-05-07T14:18:35;13.90;;;13.40;;
30080;SDS011;16902;50.816;12.828;2023-05-07T14:23:38;14.10;;;13.52;;
30080;SDS011;16902;50.816;12.828;2023-05-07T14:28:40;13.90;;;13.30;;
30080;SDS011;16902;50.816;12.828;2023-05-07T14:33:47;14.40;;;13.80;;
30080;SDS011;16902;50.816;12.828;2023-05-07T14:38:51;14.27;;;13.68;;
30080;SDS011;16902;50.816;12.828;2023-05-07T14:43:55;14.77;;;14.15;;
30080;SDS011;16902;50.816;12.828;2023-05-07T14:48:57;14.80;;;14.10;;
30080;SDS011;16902;50.816;12.828;2023-05-07T14:53:59;14.38;;;13.63;;
30080;SDS011;16902;50.816;12.828;2023-05-07T14:59:02;14.32;;;13.63;;
30080;SDS011;16902;50.816;12.828;2023-05-07T15:04:04;15.00;;;14.40;;
30080;SDS011;16902;50.816;12.828;2023-05-07T15:09:07;13.75;;;13.25;;
30080;SDS011;16902;50.816;12.828;2023-05-07T15:14:10;14.30;;;13.65;;
30080;SDS011;16902;50.816;12.828;2023-05-07T15:19:12;13.82;;;13.32;;
30080;SDS011;16902;50.816;12.828;2023-05-07T15:24:16;14.02;;;13.45;;
30080;SDS011;16902;50.816;12.828;2023-05-07T15:29:18;13.90;;;13.40;;
30080;SDS011;16902;50.816;12.828;2023-05-07T15:34:20;14.57;;;13.98;;
30080;SDS011;16902;50.816;12.828;2023-05-07T15:39:24;14.10;;;13.60;;
30080;SDS011;16902;50.816;12.828;2023-05-07T15:44:26;14.55;;;13.95;;
30080;SDS011;16902;50.816;12.828;2023-05-07T15:49:29;14.07;;;13.57;;
30080;SDS011;16902;50.816;12.828;2023-05-07T15:54:31;14.63;;;14.02;;
30080;SDS011;16902;50.816;12.828;2023-05-07T15:59:33;14.27;;;13.70;;
30080;SDS011;16902;50.816;12.828;2023-05-07T16:04:36;14.20;;;13.68;;
30080;SDS011;16902;50.816;12.828;2023-05-07T16:09:38;14.95;;;14.35;;
30080;SDS011;16902;50.816;12.828;2023-05-07T16:14:40;14.32;;;13.73;;
30080;SDS011;16902;50.816;12.828;2023-05-07T16:19:42;13.95;;;13.35;;
30080;SDS011;16902;50.816;12.828;2023-05-07T16:24:44;14.70;;;14.10;;
30080;SDS011;16902;50.816;12.828;2023-05-07T16:29:46;14.43;;;13.82;;
30080;SDS011;16902;50.816;12.828;2023-05-07T16:34:48;14.35;;;13.73;;
30080;SDS011;16902;50.816;12.828;2023-05-07T16:39:50;13.43;;;12.93;;
30080;SDS011;16902;50.816;12.828;2023-05-07T16:44:52;13.65;;;13.05;;
30080;SDS011;16902;50.816;12.828;2023-05-07T16:49:55;13.95;;;13.45;;
30080;SDS011;16902;50.816;12.828;2023-05-07T16:54:57;14.32;;;13.73;;
30080;SDS011;16902;50.816;12.828;2023-05-07T17:00:02;14.18;;;13.48;;
30080;SDS011;16902;50.816;12.828;2023-05-07T17:05:08;13.45;;;12.95;;
30080;SDS011;16902;50.816;12.828;2023-05-07T17:10:10;13.27;;;12.68;;
30080;SDS011;16902;50.816;12.828;2023-05-07T17:15:12;12.00;;;11.60;;
30080;SDS011;16902;50.816;12.828;2023-05-07T17:20:14;12.65;;;12.05;;
30080;SDS011;16902;50.816;12.828;2023-05-07T17:25:16;11.88;;;11.38;;
30080;SDS011;16902;50.816;12.828;2023-05-07T17:30:18;12.00;;;11.50;;
30080;SDS011;16902;50.816;12.828;2023-05-07T17:35:20;11.55;;;11.05;;
30080;SDS011;16902;50.816;12.828;2023-05-07T17:40:22;11.57;;;11.15;;
30080;SDS011;16902;50.816;12.828;2023-05-07T17:45:24;11.32;;;10.93;;
30080;SDS011;16902;50.816;12.828;2023-05-07T17:50:26;11.32;;;10.82;;
30080;SDS011;16902;50.816;12.828;2023-05-07T17:55:28;11.40;;;10.90;;
30080;SDS011;16902;50.816;12.828;2023-05-07T18:00:30;10.80;;;10.40;;
30080;SDS011;16902;50.816;12.828;2023-05-07T18:05:36;10.30;;;9.85;;
30080;SDS011;16902;50.816;12.828;2023-05-07T18:10:38;10.60;;;10.10;;
30080;SDS011;16902;50.816;12.828;2023-05-07T18:15:40;9.30;;;9.00;;
30080;SDS011;16902;50.816;12.828;2023-05-07T18:20:47;9.73;;;9.32;;
30080;SDS011;16902;50.816;12.828;2023-05-07T18:25:49;8.43;;;8.13;;
30080;SDS011;16902;50.816;12.828;2023-05-07T18:30:51;8.05;;;7.75;;
30080;SDS011;16902;50.816;12.828;2023-05-07T18:35:53;7.93;;;7.63;;
30080;SDS011;16902;50.816;12.828;2023-05-07T18:41:01;7.93;;;7.53;;
30080;SDS011;16902;50.816;12.828;2023-05-07T18:46:04;7.80;;;7.50;;
30080;SDS011;16902;50.816;12.828;2023-05-07T18:51:07;7.10;;;6.80;;
30080;SDS011;16902;50.816;12.828;2023-05-07T18:56:13;7.25;;;6.90;;
30080;SDS011;16902;50.816;12.828;2023-05-07T19:01:14;6.40;;;6.15;;
30080;SDS011;16902;50.816;12.828;2023-05-07T19:06:17;6.20;;;6.00;;
30080;SDS011;16902;50.816;12.828;2023-05-07T19:11:18;6.80;;;6.50;;
30080;SDS011;16902;50.816;12.828;2023-05-07T19:16:21;6.18;;;5.88;;
30080;SDS011;16902;50.816;12.828;2023-05-07T19:21:23;6.90;;;6.60;;
30080;SDS011;16902;50.816;12.828;2023-05-07T19:26:25;6.25;;;5.95;;
30080;SDS011;16902;50.816;12.828;2023-05-07T19:31:27;6.82;;;6.53;;
30080;SDS011;16902;50.816;12.828;2023-05-07T19:36:30;5.88;;;5.68;;
30080;SDS011;16902;50.816;12.828;2023-05-07T19:41:34;6.30;;;6.10;;
30080;SDS011;16902;50.816;12.828;2023-05-07T19:46:36;6.18;;;5.80;;
30080;SDS011;16902;50.816;12.828;2023-05-07T19:51:41;5.93;;;5.65;;
30080;SDS011;16902;50.816;12.828;2023-05-07T19:56:42;6.95;;;6.53;;
30080;SDS011;16902;50.816;12.828;2023-05-07T20:01:44;5.75;;;5.45;;
30080;SDS011;16902;50.816;12.828;2023-05-07T20:06:46;5.90;;;5.60;;
30080;SDS011;16902;50.816;12.828;2023-05-07T20:11:48;5.75;;;5.50;;
30080;SDS011;16902;50.816;12.828;2023-05-07T20:16:50;5.57;;;5.32;;
30080;SDS011;16902;50.816;12.828;2023-05-07T20:21:52;5.53;;;5.22;;
30080;SDS011;16902;50.816;12.828;2023-05-07T20:26:54;5.32;;;5.13;;
30080;SDS011;16902;50.816;12.828;2023-05-07T20:31:56;5.63;;;5.30;;
30080;SDS011;16902;50.816;12.828;2023-05-07T20:36:58;5.65;;;5.35;;
30080;SDS011;16902;50.816;12.828;2023-05-07T20:42:00;5.35;;;5.13;;
30080;SDS011;16902;50.816;12.828;2023-05-07T20:47:02;5.63;;;5.32;;
30080;SDS011;16902;50.816;12.828;2023-05-07T20:52:04;6.03;;;5.72;;
30080;SDS011;16902;50.816;12.828;2023-05-07T20:57:06;5.60;;;5.30;;
30080;SDS011;16902;50.816;12.828;2023-05-07T21:02:08;4.95;;;4.75;;
30080;SDS011;16902;50.816;12.828;2023-05-07T21:07:11;5.32;;;5.00;;
30080;SDS011;16902;50.816;12.828;2023-05-07T21:12:13;5.25;;;4.95;;
30080;SDS011;16902;50.816;12.828;2023-05-07T21:17:14;5.57;;;5.28;;
30080;SDS011;16902;50.816;12.828;2023-05-07T21:22:16;4.75;;;4.45;;
30080;SDS011;16902;50.816;12.828;2023-05-07T21:27:18;4.45;;;4.28;;
30080;SDS011;16902;50.816;12.828;2023-05-07T21:32:20;4.43;;;4.22;;
30080;SDS011;16902;50.816;12.828;2023-05-07T21:37:22;5.20;;;4.80;;
30080;SDS011;16902;50.816;12.828;2023-05-07T21:42:24;4.75;;;4.55;;
30080;SDS011;16902;50.816;12.828;2023-05-07T21:47:27;4.60;;;4.40;;
30080;SDS011;16902;50.816;12.828;2023-05-07T21:52:29;4.25;;;4.05;;
30080;SDS011;16902;50.816;12.828;2023-05-07T21:57:31;4.60;;;4.40;;
30080;SDS011;16902;50.816;12.828;2023-05-07T22:02:33;4.43;;;4.22;;
30080;SDS011;16902;50.816;12.828;2023-05-07T22:07:35;5.30;;;5.00;;
30080;SDS011;16902;50.816;12.828;2023-05-07T22:12:38;6.05;;;5.72;;
30080;SDS011;16902;50.816;12.828;2023-05-07T22:17:40;6.28;;;6.07;;
30080;SDS011;16902;50.816;12.828;2023-05-07T22:22:48;6.68;;;6.45;;
30080;SDS011;16902;50.816;12.828;2023-05-07T22:27:53;6.28;;;5.97;;
30080;SDS011;16902;50.816;12.828;2023-05-07T22:32:55;6.90;;;6.50;;
30080;SDS011;16902;50.816;12.828;2023-05-07T22:37:57;6.70;;;6.22;;
30080;SDS011;16902;50.816;12.828;2023-05-07T22:42:58;7.80;;;7.43;;
30080;SDS011;16902;50.816;12.828;2023-05-07T22:48:00;7.50;;;7.20;;
30080;SDS011;16902;50.816;12.828;2023-05-07T22:53:03;7.22;;;6.93;;
30080;SDS011;16902;50.816;12.828;2023-05-07T22:58:05;7.43;;;7.05;;
30080;SDS011;16902;50.816;12.828;2023-05-07T23:03:08;7.70;;;7.30;;
30080;SDS011;16902;50.816;12.828;2023-05-07T23:08:10;7.28;;;6.97;;
30080;SDS011;16902;50.816;12.828;2023-05-07T23:13:12;6.80;;;6.57;;
30080;SDS011;16902;50.816;12.828;2023-05-07T23:18:18;7.10;;;6.78;;
30080;SDS011;16902;50.816;12.828;2023-05-07T23:23:20;7.15;;;6.80;;
30080;SDS011;16902;50.816;12.828;2023-05-07T23:28:22;7.45;;;6.95;;
30080;SDS011;16902;50.816;12.828;2023-05-07T23:33:23;6.47;;;6.18;;
30080;SDS011;16902;50.816;12.828;2023-05-07T23:38:25;6.53;;;6.22;;
30080;SDS011;16902;50.816;12.828;2023-05-07T23:43:27;6.72;;;6.43;;
30080;SDS011;16902;50.816;12.828;2023-05-07T23:48:29;6.90;;;6.60;;
30080;SDS011;16902;50.816;12.828;2023-05-07T23:53:31;6.50;;;6.20;;
30080;SDS011;16902;50.816;12.828;2023-05-07T23:58:33;6.93;;;6.63;;
